Time;durP1;ratioP1;P1;durP2;ratioP2;P2;SDS_P1;SDS_P2;PMS_P1;PMS_P2;Temp;Humidity;BMP_temperature;BMP_pressure;BME280_temperature;BME280_humidity;BME280_pressure;Samples;Min_cycle;Max_cycle;Signal;HPM_P1;HPM_P2
2024/02/21 00:01:29;;;;;;;32.40;16.57;;;9.00;99.90;;;;;;4962782;28;20199;-53
2024/02/21 00:03:56;;;;;;;30.50;16.37;;;9.00;99.90;;;;;;4959186;28;20190;-56
2024/02/21 00:06:23;;;;;;;29.53;16.87;;;9.00;99.90;;;;;;4962984;28;21334;-51
2024/02/21 00:08:50;;;;;;;30.73;16.43;;;9.00;99.90;;;;;;4959215;28;20555;-55
2024/02/21 00:11:18;;;;;;;30.43;15.60;;;9.00;99.90;;;;;;4937417;28;20214;-50
2024/02/21 00:13:44;;;;;;;29.53;15.27;;;9.00;99.90;;;;;;4960156;28;20198;-56
2024/02/21 00:16:15;;;;;;;33.53;15.37;;;9.00;99.90;;;;;;4952895;28;20237;-52
2024/02/21 00:18:43;;;;;;;33.27;16.77;;;9.00;99.90;;;;;;4960444;28;20252;-55
2024/02/21 00:21:14;;;;;;;34.63;16.80;;;9.00;99.90;;;;;;4953424;28;20246;-50
2024/02/21 00:23:41;;;;;;;40.53;18.40;;;9.10;99.90;;;;;;4961084;28;20217;-56
2024/02/21 00:26:08;;;;;;;33.07;16.83;;;9.10;99.90;;;;;;4960701;28;20285;-53
2024/02/21 00:28:35;;;;;;;30.37;16.50;;;9.10;99.90;;;;;;4931994;28;20228;-55
2024/02/21 00:31:02;;;;;;;27.17;16.90;;;9.10;99.90;;;;;;4956796;28;20194;-51
2024/02/21 00:33:30;;;;;;;30.20;16.37;;;9.00;99.90;;;;;;4954029;28;20330;-50
2024/02/21 00:35:58;;;;;;;29.17;16.33;;;9.00;99.90;;;;;;4958800;28;20935;-52
2024/02/21 00:38:24;;;;;;;31.40;17.67;;;9.00;99.90;;;;;;4961833;28;20224;-52
2024/02/21 00:40:51;;;;;;;32.10;18.67;;;9.10;99.90;;;;;;4948948;28;20206;-53
2024/02/21 00:43:18;;;;;;;35.90;19.10;;;9.00;99.90;;;;;;4932147;28;20206;-54
2024/02/21 00:45:45;;;;;;;32.93;19.20;;;9.00;99.90;;;;;;4961285;28;20554;-51
2024/02/21 00:48:12;;;;;;;37.37;19.50;;;9.00;99.90;;;;;;4950930;28;20213;-55
2024/02/21 00:50:40;;;;;;;38.93;18.90;;;9.00;99.90;;;;;;4959847;28;20219;-55
2024/02/21 00:53:07;;;;;;;34.53;18.73;;;9.00;99.90;;;;;;4961092;28;20629;-56
2024/02/21 00:55:33;;;;;;;34.37;18.03;;;9.10;99.90;;;;;;4959362;28;20186;-52
2024/02/21 00:58:00;;;;;;;37.13;19.00;;;9.10;99.90;;;;;;4961457;28;20198;-53
2024/02/21 01:00:27;;;;;;;34.73;18.77;;;9.10;99.90;;;;;;4931252;28;20198;-50
2024/02/21 01:02:54;;;;;;;39.10;19.43;;;9.00;99.90;;;;;;4960844;28;20208;-49
2024/02/21 01:05:21;;;;;;;35.77;19.43;;;9.10;99.90;;;;;;4949897;28;20640;-53
2024/02/21 01:07:49;;;;;;;31.97;19.03;;;9.10;99.90;;;;;;4961751;28;20218;-53
2024/02/21 01:10:16;;;;;;;36.17;20.40;;;9.10;99.90;;;;;;4958650;28;20591;-55
2024/02/21 01:12:43;;;;;;;31.00;17.07;;;9.10;99.90;;;;;;4960250;28;20228;-50
2024/02/21 01:15:10;;;;;;;38.73;20.93;;;9.10;99.90;;;;;;4930630;28;20616;-56
2024/02/21 01:17:37;;;;;;;28.93;18.07;;;9.10;99.90;;;;;;4949642;28;21016;-52
2024/02/21 01:20:05;;;;;;;34.20;19.03;;;9.10;99.90;;;;;;4951961;28;20209;-55
2024/02/21 01:22:32;;;;;;;34.60;19.10;;;9.10;99.90;;;;;;4958243;28;20190;-52
2024/02/21 01:25:00;;;;;;;37.70;20.27;;;9.10;99.90;;;;;;4960514;28;20281;-53
2024/02/21 01:27:27;;;;;;;32.13;18.00;;;9.10;99.90;;;;;;4957453;28;20233;-51
2024/02/21 01:29:54;;;;;;;32.63;18.13;;;9.10;99.90;;;;;;4961628;28;21363;-55
2024/02/21 01:32:24;;;;;;;31.70;18.10;;;9.10;99.90;;;;;;4932900;28;20217;-56
2024/02/21 01:34:51;;;;;;;29.73;18.43;;;9.10;99.90;;;;;;4953009;28;20217;-51
2024/02/21 01:37:17;;;;;;;33.53;17.47;;;9.10;99.90;;;;;;4958870;28;20218;-55
2024/02/21 01:39:44;;;;;;;31.30;18.53;;;9.10;99.90;;;;;;4961041;28;20202;-49
2024/02/21 01:42:12;;;;;;;34.90;19.10;;;9.10;99.90;;;;;;4957683;28;20221;-55
2024/02/21 01:44:39;;;;;;;31.50;18.27;;;9.00;99.90;;;;;;4960019;28;20285;-50
2024/02/21 01:47:06;;;;;;;39.67;19.77;;;9.00;99.90;;;;;;4935710;28;20229;-56
2024/02/21 01:49:33;;;;;;;31.63;19.03;;;9.00;99.90;;;;;;4958984;28;20198;-51
2024/02/21 01:52:01;;;;;;;34.97;19.23;;;9.00;99.90;;;;;;4951724;28;20210;-51
2024/02/21 01:54:29;;;;;;;27.53;17.53;;;8.90;99.90;;;;;;4957940;28;20190;-50
2024/02/21 01:56:56;;;;;;;34.60;18.00;;;8.90;99.90;;;;;;4960852;28;20587;-53
2024/02/21 01:59:24;;;;;;;34.00;17.83;;;8.80;99.90;;;;;;4957190;28;20497;-52
2024/02/21 02:01:53;;;;;;;34.50;18.37;;;8.80;99.90;;;;;;4938084;28;20288;-51
2024/02/21 02:04:21;;;;;;;37.40;18.90;;;8.80;99.90;;;;;;4961781;28;20666;-54
2024/02/21 02:06:48;;;;;;;35.00;17.77;;;8.80;99.90;;;;;;4956948;28;20233;-54
2024/02/21 02:09:15;;;;;;;31.43;17.53;;;8.80;99.90;;;;;;4963042;28;20205;-55
2024/02/21 02:11:43;;;;;;;32.07;17.07;;;8.80;99.90;;;;;;4963837;28;20217;-53
2024/02/21 02:14:10;;;;;;;29.23;16.50;;;8.80;99.90;;;;;;4963550;28;20205;-55
2024/02/21 02:16:38;;;;;;;33.30;18.40;;;8.70;99.90;;;;;;4937207;28;20229;-52
2024/02/21 02:19:05;;;;;;;28.37;17.80;;;8.80;99.90;;;;;;4965226;28;20739;-56
2024/02/21 02:21:39;;;;;;;29.70;18.87;;;8.70;99.90;;;;;;4952383;28;20262;-53
2024/02/21 02:24:07;;;;;;;36.80;18.57;;;8.70;99.90;;;;;;4961229;28;20280;-56
2024/02/21 02:26:34;;;;;;;33.07;17.23;;;8.70;99.90;;;;;;4962512;28;20206;-52
2024/02/21 02:29:02;;;;;;;27.47;16.33;;;8.70;99.90;;;;;;4964923;28;20190;-51
2024/02/21 02:31:29;;;;;;;29.50;17.43;;;8.70;99.90;;;;;;4960800;28;20338;-49
2024/02/21 02:33:56;;;;;;;33.13;18.13;;;8.70;99.90;;;;;;4937337;28;20291;-52
2024/02/21 02:36:23;;;;;;;28.97;17.20;;;8.70;99.90;;;;;;4951890;28;20816;-54
2024/02/21 02:38:49;;;;;;;30.33;17.90;;;8.70;99.90;;;;;;4964418;28;20257;-51
2024/02/21 02:41:17;;;;;;;31.20;17.70;;;8.70;99.90;;;;;;4961788;28;20194;-55
2024/02/21 02:43:44;;;;;;;34.40;19.40;;;8.70;99.90;;;;;;4954718;28;20229;-52
2024/02/21 02:46:11;;;;;;;28.17;16.00;;;8.70;99.90;;;;;;4962036;28;20230;-56
2024/02/21 02:48:39;;;;;;;34.20;19.40;;;8.70;99.90;;;;;;4934287;28;20640;-53
2024/02/21 02:51:05;;;;;;;38.17;19.47;;;8.70;99.90;;;;;;4963380;28;20544;-55
2024/02/21 02:53:32;;;;;;;32.87;19.67;;;8.70;99.90;;;;;;4953601;28;20222;-49
2024/02/21 02:55:59;;;;;;;38.07;21.07;;;8.70;99.90;;;;;;4964244;28;20218;-51
2024/02/21 02:58:27;;;;;;;43.20;20.67;;;8.70;99.90;;;;;;4960717;28;20211;-51
2024/02/21 03:00:54;;;;;;;32.93;20.53;;;8.80;99.90;;;;;;4964094;28;20222;-53
2024/02/21 03:03:21;;;;;;;34.97;19.63;;;8.80;99.90;;;;;;4937993;28;20202;-57
2024/02/21 03:05:47;;;;;;;33.10;20.40;;;8.80;99.90;;;;;;4962114;28;20312;-54
2024/02/21 03:08:15;;;;;;;34.50;19.40;;;8.80;99.90;;;;;;4955597;28;20202;-55
2024/02/21 03:10:42;;;;;;;35.10;21.27;;;8.80;99.90;;;;;;4960234;28;20277;-52
2024/02/21 03:13:08;;;;;;;40.33;23.17;;;8.90;99.90;;;;;;4962619;28;20202;-55
2024/02/21 03:15:36;;;;;;;40.90;21.37;;;8.90;99.90;;;;;;4961928;28;21607;-53
2024/02/21 03:18:04;;;;;;;38.63;21.00;;;8.90;99.90;;;;;;4963316;28;20198;-53
2024/02/21 03:20:31;;;;;;;33.57;20.67;;;8.90;99.90;;;;;;4933918;28;20269;-51
2024/02/21 03:22:57;;;;;;;38.00;21.00;;;8.90;99.90;;;;;;4963443;28;20286;-52
2024/02/21 03:25:24;;;;;;;33.93;20.50;;;8.90;99.90;;;;;;4950479;28;20308;-50
2024/02/21 03:27:51;;;;;;;31.73;19.77;;;9.00;99.90;;;;;;4962226;28;20224;-48
2024/02/21 03:30:18;;;;;;;35.57;18.50;;;9.00;99.90;;;;;;4959305;28;20633;-53
2024/02/21 03:32:46;;;;;;;35.97;19.73;;;9.00;99.90;;;;;;4962601;28;20194;-52
2024/02/21 03:35:13;;;;;;;35.77;19.30;;;9.00;99.90;;;;;;4936113;28;20309;-55
2024/02/21 03:37:40;;;;;;;35.33;18.70;;;9.00;99.90;;;;;;4961851;28;20308;-53
2024/02/21 03:40:11;;;;;;;32.23;20.20;;;9.00;99.90;;;;;;4958406;28;20206;-54
2024/02/21 03:42:38;;;;;;;28.63;18.70;;;9.00;99.90;;;;;;4961803;28;20230;-50
2024/02/21 03:45:06;;;;;;;31.30;18.30;;;9.00;99.90;;;;;;4963009;28;20249;-55
2024/02/21 03:47:33;;;;;;;33.90;18.47;;;9.10;99.90;;;;;;4960416;28;20229;-50
2024/02/21 03:50:01;;;;;;;28.67;18.10;;;9.10;99.90;;;;;;4963194;28;20261;-50
2024/02/21 03:52:28;;;;;;;30.17;17.53;;;9.10;99.90;;;;;;4927228;28;20217;-51
2024/02/21 03:54:55;;;;;;;33.43;18.57;;;9.10;99.90;;;;;;4955525;28;20575;-51
2024/02/21 03:57:22;;;;;;;33.20;19.10;;;9.00;99.90;;;;;;4951915;28;20210;-54
2024/02/21 03:59:51;;;;;;;28.67;17.43;;;9.00;99.90;;;;;;4963205;28;20638;-54
2024/02/21 04:02:18;;;;;;;29.17;17.00;;;9.00;99.90;;;;;;4959988;28;20727;-55
2024/02/21 04:04:46;;;;;;;30.23;17.33;;;9.00;99.90;;;;;;4962534;28;20472;-55
2024/02/21 04:07:14;;;;;;;26.13;17.70;;;9.00;99.90;;;;;;4936694;28;20246;-55
2024/02/21 04:09:41;;;;;;;30.13;17.30;;;9.00;99.90;;;;;;4942758;28;20246;-56
2024/02/21 04:12:09;;;;;;;30.07;16.60;;;9.00;99.90;;;;;;4962077;28;20206;-51
2024/02/21 04:14:36;;;;;;;27.07;17.30;;;9.00;99.90;;;;;;4947536;28;20689;-55
2024/02/21 04:17:03;;;;;;;31.80;17.67;;;9.00;99.90;;;;;;4961150;28;20217;-53
2024/02/21 04:19:30;;;;;;;30.53;16.93;;;9.00;99.90;;;;;;4952844;28;20209;-55
2024/02/21 04:21:57;;;;;;;29.87;16.97;;;9.00;99.90;;;;;;4935966;28;20213;-50
2024/02/21 04:24:25;;;;;;;30.00;18.27;;;9.00;99.90;;;;;;4961668;28;20202;-52
2024/02/21 04:26:52;;;;;;;27.87;16.17;;;9.00;99.90;;;;;;4957334;28;20364;-51
2024/02/21 04:29:19;;;;;;;26.70;16.63;;;8.90;99.90;;;;;;4955185;28;21010;-50
2024/02/21 04:31:46;;;;;;;27.40;15.80;;;8.90;99.90;;;;;;4956919;28;20202;-51
2024/02/21 04:34:12;;;;;;;27.60;14.93;;;8.90;99.90;;;;;;4958335;28;20210;-50
2024/02/21 04:36:40;;;;;;;28.10;15.50;;;8.90;99.90;;;;;;4959440;28;20210;-54
2024/02/21 04:39:07;;;;;;;28.30;15.70;;;8.90;99.90;;;;;;4936491;28;20225;-49
2024/02/21 04:41:35;;;;;;;31.47;15.37;;;8.90;99.90;;;;;;4960337;28;20202;-55
2024/02/21 04:44:03;;;;;;;27.00;15.67;;;8.90;99.90;;;;;;4952593;28;20209;-55
2024/02/21 04:46:31;;;;;;;27.03;15.60;;;8.90;99.90;;;;;;4960631;28;20222;-56
2024/02/21 04:48:58;;;;;;;27.43;14.63;;;8.90;99.90;;;;;;4942065;28;20218;-49
2024/02/21 04:51:25;;;;;;;25.60;14.03;;;8.90;99.90;;;;;;4960080;28;20680;-56
2024/02/21 04:53:51;;;;;;;24.67;14.80;;;8.90;99.90;;;;;;4935262;28;20233;-55
2024/02/21 04:56:18;;;;;;;24.57;13.97;;;8.80;99.90;;;;;;4961472;28;20771;-57
2024/02/21 04:58:46;;;;;;;25.17;14.60;;;8.90;99.90;;;;;;4951735;28;20308;-57
2024/02/21 05:01:13;;;;;;;21.97;13.60;;;8.80;99.90;;;;;;4962022;28;20205;-57
2024/02/21 05:03:40;;;;;;;22.47;14.07;;;8.80;99.90;;;;;;4953034;28;20228;-52
2024/02/21 05:06:07;;;;;;;22.40;14.53;;;8.80;99.90;;;;;;4953563;28;20245;-54
2024/02/21 05:08:34;;;;;;;21.53;12.97;;;8.80;99.90;;;;;;4959046;28;20277;-53
2024/02/21 05:11:01;;;;;;;20.27;12.83;;;8.80;99.90;;;;;;4936172;28;20218;-54
2024/02/21 05:13:28;;;;;;;19.20;12.33;;;8.80;99.90;;;;;;4959610;28;20206;-53
2024/02/21 05:15:56;;;;;;;18.20;12.57;;;8.80;99.90;;;;;;4954432;28;20230;-53
2024/02/21 05:18:23;;;;;;;15.20;11.93;;;8.80;99.90;;;;;;4959263;28;20190;-56
2024/02/21 05:20:49;;;;;;;18.53;11.37;;;8.80;99.90;;;;;;4952319;28;20201;-54
2024/02/21 05:23:16;;;;;;;14.90;10.43;;;8.80;99.90;;;;;;4961486;28;20612;-56
2024/02/21 05:25:43;;;;;;;13.83;10.60;;;8.80;99.90;;;;;;4920445;28;20217;-51
2024/02/21 05:28:10;;;;;;;15.47;10.67;;;8.80;99.90;;;;;;4960490;28;20726;-52
2024/02/21 05:30:37;;;;;;;16.13;10.47;;;8.80;99.90;;;;;;4939746;28;20276;-50
2024/02/21 05:33:07;;;;;;;14.20;10.27;;;8.80;99.90;;;;;;4939387;28;21142;-53
2024/02/21 05:35:34;;;;;;;16.03;9.97;;;8.80;99.90;;;;;;4962811;28;20193;-55
2024/02/21 05:38:04;;;;;;;10.67;8.97;;;8.80;99.90;;;;;;4952908;28;20205;-51
2024/02/21 05:40:30;;;;;;;12.47;9.03;;;8.80;99.90;;;;;;4940923;28;20209;-51
2024/02/21 05:42:57;;;;;;;12.73;8.53;;;8.70;99.90;;;;;;4962850;28;20202;-55
2024/02/21 05:45:24;;;;;;;12.77;8.80;;;8.80;99.90;;;;;;4957957;28;20304;-54
2024/02/21 05:47:51;;;;;;;12.80;8.50;;;8.80;99.90;;;;;;4946249;28;20304;-55
2024/02/21 05:50:21;;;;;;;13.53;8.87;;;8.80;99.90;;;;;;4963593;28;20263;-52
2024/02/21 05:52:48;;;;;;;13.50;8.33;;;8.80;99.90;;;;;;4955050;28;20512;-55
2024/02/21 05:55:15;;;;;;;13.03;8.27;;;8.80;99.90;;;;;;4961819;28;20260;-54
2024/02/21 05:57:41;;;;;;;9.57;7.87;;;8.80;99.90;;;;;;4939158;28;20228;-55
2024/02/21 06:00:09;;;;;;;10.60;7.83;;;8.80;99.90;;;;;;4961026;28;20230;-52
2024/02/21 06:02:39;;;;;;;10.90;7.80;;;8.80;99.90;;;;;;4949370;28;20202;-50
2024/02/21 06:05:07;;;;;;;10.70;7.93;;;8.80;99.90;;;;;;4954904;28;20214;-53
2024/02/21 06:07:36;;;;;;;12.37;8.03;;;8.80;99.90;;;;;;4966688;28;20605;-53
2024/02/21 06:10:03;;;;;;;10.33;6.60;;;8.80;99.90;;;;;;4954162;28;20816;-54
2024/02/21 06:12:30;;;;;;;8.50;6.40;;;8.80;99.90;;;;;;4939506;28;20213;-50
2024/02/21 06:14:57;;;;;;;8.97;6.13;;;8.70;99.90;;;;;;4962772;28;20252;-56
2024/02/21 06:17:24;;;;;;;8.23;5.93;;;8.80;99.90;;;;;;4956173;28;20217;-52
2024/02/21 06:19:50;;;;;;;8.47;6.13;;;8.70;99.90;;;;;;4948231;28;20276;-56
2024/02/21 06:22:17;;;;;;;9.07;6.23;;;8.80;99.90;;;;;;4961961;28;20894;-52
2024/02/21 06:24:46;;;;;;;5.67;5.07;;;8.70;99.90;;;;;;4951793;28;20210;-55
2024/02/21 06:27:14;;;;;;;7.87;5.57;;;8.80;99.90;;;;;;4945037;28;20229;-54
2024/02/21 06:29:41;;;;;;;6.07;4.87;;;8.80;99.90;;;;;;4942883;28;21204;-52
2024/02/21 06:32:08;;;;;;;7.23;5.30;;;8.80;99.90;;;;;;4962801;28;20237;-54
2024/02/21 06:34:35;;;;;;;9.20;4.97;;;8.80;99.90;;;;;;4951272;28;20866;-53
2024/02/21 06:37:02;;;;;;;6.63;4.57;;;8.80;99.90;;;;;;4964086;28;20218;-53
2024/02/21 06:39:29;;;;;;;5.40;4.40;;;8.80;99.90;;;;;;4952062;28;20210;-56
2024/02/21 06:41:57;;;;;;;5.57;4.27;;;8.80;99.90;;;;;;4964119;28;20206;-49
2024/02/21 06:44:24;;;;;;;5.83;4.53;;;8.80;99.90;;;;;;4938805;28;20704;-56
2024/02/21 06:46:51;;;;;;;5.50;3.57;;;8.80;99.90;;;;;;4963338;28;20218;-53
2024/02/21 06:49:17;;;;;;;5.63;3.53;;;8.80;99.90;;;;;;4954952;28;22147;-53
2024/02/21 06:51:44;;;;;;;4.43;3.50;;;8.80;99.90;;;;;;4962318;28;20260;-54
2024/02/21 06:54:11;;;;;;;3.33;3.03;;;8.80;99.90;;;;;;4950656;28;20207;-57
2024/02/21 06:56:38;;;;;;;6.57;3.50;;;8.80;99.90;;;;;;4949540;28;20218;-59
2024/02/21 06:59:07;;;;;;;6.53;3.57;;;8.80;99.90;;;;;;4935725;28;20203;-52
2024/02/21 07:01:33;;;;;;;5.67;3.60;;;8.80;99.90;;;;;;4963098;28;20198;-58
2024/02/21 07:04:00;;;;;;;4.53;2.83;;;8.80;99.90;;;;;;4946204;28;20201;-56
2024/02/21 07:06:27;;;;;;;3.50;2.83;;;8.80;99.90;;;;;;4962185;28;20241;-57
2024/02/21 07:08:54;;;;;;;4.93;2.87;;;8.80;99.90;;;;;;4962121;28;20791;-54
2024/02/21 07:11:21;;;;;;;3.77;3.00;;;8.80;99.90;;;;;;4953601;28;20210;-57
2024/02/21 07:13:47;;;;;;;5.73;2.97;;;8.80;99.90;;;;;;4950528;28;20197;-54
2024/02/21 07:16:16;;;;;;;3.57;2.83;;;8.80;99.90;;;;;;4937424;28;20225;-53
2024/02/21 07:18:43;;;;;;;3.63;2.73;;;8.90;99.90;;;;;;4960718;28;20194;-54
2024/02/21 07:21:09;;;;;;;4.27;2.90;;;8.80;99.90;;;;;;4955862;28;20218;-54
2024/02/21 07:23:36;;;;;;;4.27;3.20;;;8.80;99.90;;;;;;4951956;28;20209;-52
2024/02/21 07:26:05;;;;;;;4.83;3.23;;;8.90;99.90;;;;;;4955590;28;20703;-54
2024/02/21 07:28:31;;;;;;;3.40;3.10;;;8.90;99.90;;;;;;4953879;28;20238;-58
2024/02/21 07:31:00;;;;;;;2.93;2.73;;;8.90;99.90;;;;;;4935579;28;20222;-53
2024/02/21 07:33:28;;;;;;;4.83;3.10;;;8.90;99.90;;;;;;4961370;28;20601;-57
2024/02/21 07:35:55;;;;;;;5.13;3.27;;;8.90;99.90;;;;;;4946151;28;20706;-56
2024/02/21 07:38:22;;;;;;;4.30;3.90;;;8.90;99.90;;;;;;4959724;28;20190;-51
2024/02/21 07:40:49;;;;;;;6.03;4.03;;;8.90;99.90;;;;;;4953794;28;20198;-54
2024/02/21 07:43:16;;;;;;;5.80;3.80;;;8.90;99.90;;;;;;4960692;28;20277;-53
2024/02/21 07:45:42;;;;;;;6.03;4.07;;;8.90;99.90;;;;;;4924567;28;20289;-52
2024/02/21 07:48:09;;;;;;;13.07;4.20;;;8.90;99.90;;;;;;4945820;28;20228;-51
2024/02/21 07:50:37;;;;;;;7.97;4.27;;;8.90;99.90;;;;;;4953672;28;20668;-52
2024/02/21 07:53:04;;;;;;;11.70;4.20;;;8.90;99.90;;;;;;4944140;28;20206;-52
2024/02/21 07:55:31;;;;;;;11.93;4.60;;;8.80;99.90;;;;;;4962843;28;20206;-50
2024/02/21 07:57:58;;;;;;;6.57;4.23;;;8.80;99.90;;;;;;4936864;28;20940;-51
2024/02/21 08:00:25;;;;;;;12.37;5.10;;;8.90;99.90;;;;;;4935611;28;20742;-56
2024/02/21 08:02:57;;;;;;;9.23;3.90;;;8.80;99.90;;;;;;4958448;28;20268;-51
2024/02/21 08:05:24;;;;;;;12.27;4.70;;;8.90;99.90;;;;;;4957160;28;20221;-56
2024/02/21 08:07:53;;;;;;;7.47;3.70;;;8.90;99.90;;;;;;4942317;28;20288;-51
2024/02/21 08:10:19;;;;;;;17.20;4.03;;;8.90;99.90;;;;;;4960792;28;20719;-55
2024/02/21 08:12:46;;;;;;;12.93;4.27;;;8.90;99.90;;;;;;4950831;28;20260;-55
2024/02/21 08:15:13;;;;;;;13.07;4.27;;;8.90;99.90;;;;;;4948794;28;20206;-56
2024/02/21 08:17:40;;;;;;;12.33;3.97;;;8.90;99.90;;;;;;4928520;28;20348;-53
2024/02/21 08:20:08;;;;;;;12.30;4.50;;;9.00;99.90;;;;;;4961354;28;20205;-54
2024/02/21 08:22:37;;;;;;;14.67;4.37;;;9.00;99.90;;;;;;4938053;28;20202;-52
2024/02/21 08:25:07;;;;;;;14.30;4.30;;;8.90;99.90;;;;;;4955184;28;20206;-52
2024/02/21 08:27:34;;;;;;;19.63;4.20;;;9.00;99.90;;;;;;4946850;28;20231;-48
2024/02/21 08:30:01;;;;;;;16.87;4.00;;;9.00;99.90;;;;;;4962289;28;20213;-53
2024/02/21 08:32:30;;;;;;;14.97;3.67;;;8.90;99.90;;;;;;4923254;28;20339;-55
2024/02/21 08:34:57;;;;;;;18.70;4.00;;;8.90;99.90;;;;;;4962158;28;20198;-50
2024/02/21 08:37:24;;;;;;;15.93;3.63;;;8.90;99.90;;;;;;4944597;28;20244;-56
2024/02/21 08:39:50;;;;;;;12.07;3.33;;;9.00;99.90;;;;;;4954157;28;20205;-51
2024/02/21 08:42:18;;;;;;;13.63;3.73;;;9.00;99.90;;;;;;4954238;28;20253;-56
2024/02/21 08:44:45;;;;;;;14.60;4.03;;;9.00;99.90;;;;;;4952910;28;20198;-56
2024/02/21 08:47:12;;;;;;;14.00;3.20;;;9.10;99.90;;;;;;4952231;28;20253;-56
2024/02/21 08:49:39;;;;;;;12.50;3.23;;;9.10;99.90;;;;;;4932994;28;20707;-51
2024/02/21 08:52:06;;;;;;;19.27;3.53;;;9.00;99.90;;;;;;4949674;28;20706;-56
2024/02/21 08:54:33;;;;;;;14.90;3.50;;;9.10;99.90;;;;;;4948918;28;20225;-53
2024/02/21 08:57:00;;;;;;;10.60;3.83;;;9.10;99.90;;;;;;4952742;28;20237;-56
2024/02/21 08:59:29;;;;;;;17.90;4.20;;;9.10;99.90;;;;;;4952686;28;20198;-52
2024/02/21 09:01:55;;;;;;;15.27;3.53;;;9.10;99.90;;;;;;4956150;28;20214;-57
2024/02/21 09:04:22;;;;;;;10.80;3.00;;;9.10;99.90;;;;;;4929506;28;20458;-53
2024/02/21 09:06:49;;;;;;;13.57;3.60;;;9.20;99.90;;;;;;4960954;28;20250;-54
2024/02/21 09:09:16;;;;;;;14.27;3.67;;;9.20;99.90;;;;;;4944816;28;20234;-53
2024/02/21 09:11:43;;;;;;;13.20;2.93;;;9.20;99.90;;;;;;4954669;28;20209;-53
2024/02/21 09:14:10;;;;;;;12.13;3.13;;;9.20;99.90;;;;;;4949330;28;20242;-54
2024/02/21 09:16:39;;;;;;;19.03;4.40;;;9.20;99.90;;;;;;4960821;28;20214;-53
2024/02/21 09:19:07;;;;;;;11.90;3.37;;;9.20;99.90;;;;;;4925165;28;20681;-55
2024/02/21 09:21:33;;;;;;;13.00;3.30;;;9.20;99.90;;;;;;4962255;28;20201;-54
2024/02/21 09:24:01;;;;;;;11.93;3.33;;;9.20;99.90;;;;;;4947666;28;20320;-55
2024/02/21 09:26:28;;;;;;;10.10;3.40;;;9.20;99.90;;;;;;4958593;28;20233;-55
2024/02/21 09:28:56;;;;;;;10.37;3.07;;;9.20;99.90;;;;;;4949000;28;20214;-55
2024/02/21 09:31:23;;;;;;;11.03;3.27;;;9.30;99.90;;;;;;4954163;28;20269;-49
2024/02/21 09:33:51;;;;;;;14.60;4.30;;;9.30;99.90;;;;;;4953004;28;20218;-56
2024/02/21 09:36:18;;;;;;;8.60;2.83;;;9.40;99.90;;;;;;4931475;28;20225;-51
2024/02/21 09:38:44;;;;;;;13.67;3.77;;;9.40;99.90;;;;;;4953839;28;20190;-53
2024/02/21 09:41:17;;;;;;;11.10;3.23;;;9.40;99.90;;;;;;4950007;28;20288;-53
2024/02/21 09:43:45;;;;;;;13.33;3.43;;;9.40;99.90;;;;;;4954226;28;20210;-53
2024/02/21 09:46:17;;;;;;;12.03;3.93;;;9.30;99.90;;;;;;4948543;28;20443;-55
2024/02/21 09:49:04;;;;;;;8.50;4.13;;;9.40;99.90;;;;;;4951901;28;20230;-53
2024/02/21 09:51:33;;;;;;;12.77;3.63;;;9.40;99.90;;;;;;4935922;28;20202;-50
2024/02/21 09:54:00;;;;;;;14.03;3.93;;;9.30;99.90;;;;;;4954264;28;20198;-57
2024/02/21 09:56:27;;;;;;;11.93;3.57;;;9.30;99.90;;;;;;4950382;28;20289;-50
2024/02/21 09:58:54;;;;;;;8.17;3.43;;;9.30;99.90;;;;;;4952177;28;20268;-54
2024/02/21 10:01:21;;;;;;;9.57;3.43;;;9.20;99.90;;;;;;4950272;28;20214;-54
2024/02/21 10:03:49;;;;;;;8.13;3.50;;;9.20;99.90;;;;;;4961374;28;20276;-57
2024/02/21 10:06:17;;;;;;;14.13;3.57;;;9.20;99.90;;;;;;4925461;28;20300;-53
2024/02/21 10:08:44;;;;;;;8.90;3.10;;;9.10;99.90;;;;;;4962017;28;20716;-53
2024/02/21 10:11:11;;;;;;;12.83;3.27;;;9.20;99.90;;;;;;4942531;28;20880;-51
2024/02/21 10:13:38;;;;;;;14.47;3.43;;;9.20;99.90;;;;;;4961430;28;20595;-54
2024/02/21 10:16:07;;;;;;;7.10;3.00;;;9.20;99.90;;;;;;4950737;28;20747;-55
2024/02/21 10:18:34;;;;;;;8.13;2.87;;;9.20;99.90;;;;;;4951406;28;20209;-51
2024/02/21 10:21:02;;;;;;;8.80;2.73;;;9.20;99.90;;;;;;4931984;28;20242;-54
2024/02/21 10:23:41;;;;;;;7.10;3.13;;;9.20;99.90;;;;;;4960579;28;20206;-52
2024/02/21 10:26:09;;;;;;;5.83;3.70;;;9.20;99.90;;;;;;4953004;28;20907;-53
2024/02/21 10:28:35;;;;;;;5.77;3.10;;;9.20;99.90;;;;;;4957458;28;20292;-52
2024/02/21 10:31:02;;;;;;;7.70;3.07;;;9.20;99.90;;;;;;4954024;28;20276;-55
2024/02/21 10:33:32;;;;;;;7.57;3.37;;;9.20;99.90;;;;;;4954125;28;20754;-52
2024/02/21 10:36:08;;;;;;;11.70;3.20;;;9.20;99.90;;;;;;4950505;28;20624;-56
2024/02/21 10:38:37;;;;;;;4.47;3.50;;;9.20;99.90;;;;;;4940054;28;20198;-50
2024/02/21 10:41:05;;;;;;;7.17;3.37;;;9.20;99.90;;;;;;4954557;28;20213;-52
2024/02/21 10:43:39;;;;;;;7.80;3.73;;;9.20;99.90;;;;;;4955487;28;20194;-56
2024/02/21 10:46:07;;;;;;;6.13;4.67;;;9.20;99.90;;;;;;4958356;28;20232;-53
2024/02/21 10:48:42;;;;;;;10.40;5.57;;;9.20;99.90;;;;;;4946798;28;20268;-55
2024/02/21 10:51:15;;;;;;;9.00;6.30;;;9.20;99.90;;;;;;4972735;28;20252;-49
2024/02/21 10:53:47;;;;;;;8.37;7.27;;;9.20;99.90;;;;;;4927262;28;20285;-50
2024/02/21 10:56:24;;;;;;;11.90;8.17;;;9.30;99.90;;;;;;4961710;28;20228;-56
2024/02/21 10:58:51;;;;;;;12.53;8.63;;;9.30;99.90;;;;;;4950631;28;20205;-53
2024/02/21 11:01:19;;;;;;;14.33;8.73;;;9.30;99.90;;;;;;4956343;28;20206;-55
2024/02/21 11:03:49;;;;;;;15.17;10.00;;;9.40;99.90;;;;;;4952538;28;20210;-52
2024/02/21 11:06:18;;;;;;;15.37;10.03;;;9.40;99.90;;;;;;4958212;28;20233;-52
2024/02/21 11:08:49;;;;;;;18.10;11.33;;;9.40;99.90;;;;;;4928671;28;20309;-49
2024/02/21 11:11:18;;;;;;;18.63;11.63;;;9.30;99.90;;;;;;4950839;28;20213;-52
2024/02/21 11:13:45;;;;;;;17.30;12.40;;;9.40;99.90;;;;;;4956399;28;20202;-51
2024/02/21 11:16:23;;;;;;;20.80;13.57;;;9.30;99.90;;;;;;4945190;28;20233;-54
2024/02/21 11:18:50;;;;;;;19.40;13.10;;;9.30;99.90;;;;;;4957236;28;20202;-49
2024/02/21 11:21:17;;;;;;;20.40;14.93;;;9.40;99.90;;;;;;4944797;28;20202;-53
2024/02/21 11:23:44;;;;;;;27.63;16.50;;;9.40;99.90;;;;;;4956364;28;20217;-49
2024/02/21 11:26:20;;;;;;;22.80;16.40;;;9.40;99.90;;;;;;4935094;28;20226;-53
2024/02/21 11:28:57;;;;;;;27.47;18.33;;;9.40;99.90;;;;;;4954396;28;20217;-50
2024/02/21 11:31:26;;;;;;;25.17;16.57;;;9.40;99.90;;;;;;4955771;28;20201;-50
2024/02/21 11:33:53;;;;;;;34.97;17.87;;;9.40;99.90;;;;;;4956911;28;20815;-56
2024/02/21 11:36:28;;;;;;;31.60;18.47;;;9.40;99.90;;;;;;4947808;28;20218;-57
2024/02/21 11:38:54;;;;;;;29.53;18.23;;;9.40;99.90;;;;;;4952368;28;20784;-55
2024/02/21 11:41:23;;;;;;;28.57;18.40;;;9.40;99.90;;;;;;4933072;28;20208;-51
2024/02/21 11:43:51;;;;;;;32.57;18.50;;;9.40;99.90;;;;;;4956378;28;20280;-55
2024/02/21 11:46:19;;;;;;;29.00;18.37;;;9.40;99.90;;;;;;4951429;28;20221;-51
2024/02/21 11:48:50;;;;;;;26.97;16.80;;;9.40;99.90;;;;;;4956115;28;20209;-51
2024/02/21 11:51:24;;;;;;;24.47;16.47;;;9.30;99.90;;;;;;4941758;28;20211;-55
2024/02/21 11:53:52;;;;;;;23.23;15.27;;;9.30;99.90;;;;;;4951470;28;20204;-52
2024/02/21 11:56:19;;;;;;;25.03;15.50;;;9.30;99.90;;;;;;4934937;28;20840;-51
2024/02/21 11:58:48;;;;;;;23.63;15.50;;;9.30;99.90;;;;;;4952704;28;20615;-57
2024/02/21 12:01:15;;;;;;;23.63;14.73;;;9.30;99.90;;;;;;4945497;28;20213;-53
2024/02/21 12:03:49;;;;;;;22.50;14.93;;;9.30;99.90;;;;;;4956038;28;20202;-57
2024/02/21 12:06:19;;;;;;;26.23;14.20;;;9.40;99.90;;;;;;4952388;28;20229;-53
2024/02/21 12:08:46;;;;;;;20.87;12.40;;;9.30;99.90;;;;;;4944083;28;20576;-55
2024/02/21 12:11:23;;;;;;;20.27;13.03;;;9.30;99.90;;;;;;4962871;28;20261;-49
2024/02/21 12:14:03;;;;;;;19.00;11.60;;;9.30;99.90;;;;;;4934326;28;20205;-52
2024/02/21 12:16:30;;;;;;;16.17;11.37;;;9.30;99.90;;;;;;4947313;28;20229;-53
2024/02/21 12:18:57;;;;;;;21.03;11.70;;;9.30;99.90;;;;;;4951641;28;20200;-51
2024/02/21 12:21:28;;;;;;;17.60;10.57;;;9.30;99.90;;;;;;4962483;28;20264;-49
2024/02/21 12:23:55;;;;;;;16.57;10.13;;;9.20;99.90;;;;;;4949680;28;20209;-50
2024/02/21 12:26:22;;;;;;;19.90;11.03;;;9.20;99.90;;;;;;4953923;28;20661;-55
2024/02/21 12:28:49;;;;;;;16.27;10.73;;;9.20;99.90;;;;;;4930520;28;20632;-54
2024/02/21 12:31:17;;;;;;;24.77;10.63;;;9.20;99.90;;;;;;4954897;28;20234;-52
2024/02/21 12:33:44;;;;;;;16.30;10.77;;;9.30;99.90;;;;;;4959932;28;20202;-56
2024/02/21 12:36:12;;;;;;;16.00;11.30;;;9.20;99.90;;;;;;4956026;28;20230;-51
2024/02/21 12:38:39;;;;;;;19.43;11.27;;;9.30;99.90;;;;;;4952597;28;20657;-55
2024/02/21 12:41:07;;;;;;;20.63;11.67;;;9.20;99.90;;;;;;4951587;28;20225;-49
2024/02/21 12:43:34;;;;;;;18.50;10.70;;;9.20;99.90;;;;;;4935696;28;20210;-55
2024/02/21 12:46:01;;;;;;;19.27;11.13;;;9.20;99.90;;;;;;4959497;28;20256;-54